createdAt,value
2023-09-16T00:01:59.470Z,56.42
2023-09-16T00:04:26.017Z,56.55
2023-09-16T00:06:52.732Z,57.44
2023-09-16T00:09:19.214Z,58.61
2023-09-16T00:11:45.708Z,59.40
2023-09-16T00:14:12.195Z,57.80
2023-09-16T00:16:38.832Z,57.58
2023-09-16T00:19:05.368Z,57.33
2023-09-16T00:21:31.928Z,57.49
2023-09-16T00:23:58.473Z,57.46
2023-09-16T00:26:24.957Z,57.10
2023-09-16T00:28:51.852Z,57.09
2023-09-16T00:31:18.454Z,56.81
2023-09-16T00:33:45.021Z,56.76
2023-09-16T00:36:11.480Z,56.50
2023-09-16T00:38:37.913Z,57.49
2023-09-16T00:41:04.348Z,58.73
2023-09-16T00:43:30.810Z,60.04
2023-09-16T00:45:57.292Z,60.43
2023-09-16T00:48:23.751Z,61.04
2023-09-16T00:50:50.210Z,61.42
2023-09-16T00:53:16.699Z,61.82
2023-09-16T00:55:43.215Z,60.27
2023-09-16T00:58:09.646Z,60.16
2023-09-16T01:00:36.142Z,60.03
2023-09-16T01:03:02.771Z,60.01
2023-09-16T01:05:29.476Z,59.77
2023-09-16T01:07:56.053Z,60.22
2023-09-16T01:10:22.535Z,60.71
2023-09-16T01:12:49.183Z,59.78
2023-09-16T01:15:15.653Z,59.21
2023-09-16T01:17:42.323Z,60.21
2023-09-16T01:20:08.811Z,60.26
2023-09-16T01:22:35.340Z,59.89
2023-09-16T01:25:01.878Z,59.46
2023-09-16T01:27:28.424Z,59.74
2023-09-16T01:29:54.901Z,59.58
2023-09-16T01:32:21.453Z,60.09
2023-09-16T01:34:47.915Z,61.02
2023-09-16T01:37:14.386Z,60.92
2023-09-16T01:39:40.919Z,60.64
2023-09-16T01:42:09.431Z,60.81
2023-09-16T01:44:35.870Z,59.72
2023-09-16T01:47:02.328Z,59.00
2023-09-16T01:49:28.994Z,59.68
2023-09-16T01:51:55.556Z,58.70
2023-09-16T01:54:22.111Z,58.82
2023-09-16T01:56:48.646Z,59.06
2023-09-16T01:59:15.109Z,59.15
2023-09-16T02:01:41.708Z,58.75
2023-09-16T02:04:08.379Z,58.23
2023-09-16T02:06:34.963Z,58.01
2023-09-16T02:09:01.424Z,57.93
2023-09-16T02:11:27.884Z,58.27
2023-09-16T02:13:54.559Z,58.59
2023-09-16T02:16:21.139Z,57.33
2023-09-16T02:18:48.046Z,58.31
2023-09-16T02:21:14.879Z,57.69
2023-09-16T02:23:41.377Z,57.38
2023-09-16T02:26:07.865Z,57.31
2023-09-16T02:28:34.311Z,57.61
2023-09-16T02:31:00.866Z,58.04
2023-09-16T02:33:27.398Z,57.73
2023-09-16T02:35:53.852Z,57.98
2023-09-16T02:38:20.325Z,58.27
2023-09-16T02:40:46.696Z,58.54
2023-09-16T02:43:13.149Z,58.71
2023-09-16T02:45:39.689Z,58.18
2023-09-16T02:48:06.349Z,58.50
2023-09-16T02:50:32.872Z,58.53
2023-09-16T02:53:09.576Z,58.96
2023-09-16T02:55:36.014Z,58.70
2023-09-16T02:58:02.580Z,59.55
2023-09-16T03:00:29.121Z,58.77
2023-09-16T03:02:55.691Z,58.38
2023-09-16T03:05:22.213Z,58.39
2023-09-16T03:07:48.664Z,58.60
2023-09-16T03:10:15.106Z,59.34
2023-09-16T03:12:41.674Z,58.23
2023-09-16T03:15:08.140Z,58.40
2023-09-16T03:17:34.630Z,58.92
2023-09-16T03:20:01.088Z,59.24
2023-09-16T03:22:27.506Z,58.89
2023-09-16T03:24:54.035Z,58.38
2023-09-16T03:27:20.546Z,58.00
2023-09-16T03:29:47.194Z,57.57
2023-09-16T03:32:13.643Z,57.45
2023-09-16T03:34:40.083Z,57.34
2023-09-16T03:37:06.546Z,57.15
2023-09-16T03:39:33.071Z,57.00
2023-09-16T03:41:59.571Z,56.82
2023-09-16T03:44:26.021Z,56.84
2023-09-16T03:46:52.674Z,56.57
2023-09-16T03:49:19.169Z,57.06
2023-09-16T03:51:45.691Z,57.01
2023-09-16T03:54:12.128Z,56.83
2023-09-16T03:56:38.592Z,56.85
2023-09-16T03:59:05.186Z,57.21
2023-09-16T04:01:31.679Z,56.58
2023-09-16T04:03:58.233Z,56.81
2023-09-16T04:06:24.734Z,57.14
2023-09-16T04:08:51.220Z,56.53
2023-09-16T04:11:17.783Z,55.95
2023-09-16T04:13:44.222Z,56.73
2023-09-16T04:16:10.770Z,59.13
2023-09-16T04:18:37.415Z,61.18
2023-09-16T04:21:04.211Z,62.37
2023-09-16T04:23:31.046Z,61.90
2023-09-16T04:25:57.751Z,62.37
2023-09-16T04:28:24.364Z,63.27
2023-09-16T04:30:50.933Z,62.54
2023-09-16T04:33:17.420Z,63.76
2023-09-16T04:35:43.945Z,63.46
2023-09-16T04:38:10.418Z,63.63
2023-09-16T04:40:36.896Z,65.18
2023-09-16T04:43:03.345Z,65.03
2023-09-16T04:45:29.810Z,63.80
2023-09-16T04:47:56.317Z,64.75
2023-09-16T04:50:22.828Z,64.46
2023-09-16T04:52:49.413Z,64.52
2023-09-16T04:55:15.958Z,63.62
2023-09-16T04:57:42.580Z,62.51
2023-09-16T05:00:09.134Z,61.71
2023-09-16T05:02:35.591Z,61.57
2023-09-16T05:05:02.084Z,61.90
2023-09-16T05:07:28.530Z,62.88
2023-09-16T05:09:55.162Z,63.22
2023-09-16T05:12:21.619Z,62.75
2023-09-16T05:14:48.059Z,62.90
2023-09-16T05:17:14.560Z,62.75
2023-09-16T05:19:41.005Z,62.97
2023-09-16T05:22:07.539Z,61.66
2023-09-16T05:24:34.165Z,61.40
2023-09-16T05:27:00.632Z,63.32
2023-09-16T05:29:27.070Z,62.63
2023-09-16T05:31:53.542Z,63.93
2023-09-16T05:34:20.019Z,63.34
2023-09-16T05:36:46.569Z,63.41
2023-09-16T05:39:13.167Z,63.90
2023-09-16T05:41:39.829Z,63.95
2023-09-16T05:44:06.272Z,63.85
2023-09-16T05:46:32.908Z,64.23
2023-09-16T05:48:59.536Z,62.93
2023-09-16T05:51:26.017Z,62.21
2023-09-16T05:53:52.447Z,62.60
2023-09-16T05:56:18.898Z,63.17
2023-09-16T05:58:45.346Z,62.28
2023-09-16T06:01:11.940Z,62.27
2023-09-16T06:03:38.556Z,62.67
2023-09-16T06:06:05.073Z,61.55
2023-09-16T06:08:31.574Z,61.34
2023-09-16T06:10:58.110Z,60.94
2023-09-16T06:13:24.758Z,61.87
2023-09-16T06:15:51.354Z,61.77
2023-09-16T06:18:17.857Z,62.87
2023-09-16T06:20:44.393Z,62.56
2023-09-16T06:23:10.929Z,61.78
2023-09-16T06:25:37.401Z,62.85
2023-09-16T06:28:03.991Z,62.69
2023-09-16T06:30:30.547Z,62.85
2023-09-16T06:32:57.155Z,62.62
2023-09-16T06:35:23.584Z,63.45
2023-09-16T06:37:50.120Z,63.47
2023-09-16T06:40:16.621Z,63.37
2023-09-16T06:42:43.222Z,62.65
2023-09-16T06:45:09.665Z,63.00
2023-09-16T06:47:36.238Z,62.85
2023-09-16T06:50:02.732Z,61.80
2023-09-16T06:52:29.223Z,62.36
2023-09-16T06:54:55.730Z,62.46
2023-09-16T06:57:22.177Z,61.37
2023-09-16T06:59:48.665Z,61.17
2023-09-16T07:02:15.141Z,62.34
2023-09-16T07:04:41.712Z,62.18
2023-09-16T07:07:08.248Z,60.84
2023-09-16T07:09:34.774Z,60.36
2023-09-16T07:12:01.213Z,59.56
2023-09-16T07:14:27.842Z,60.03
2023-09-16T07:16:54.343Z,59.09
2023-09-16T07:19:20.983Z,58.38
2023-09-16T07:21:47.573Z,57.69
2023-09-16T07:24:14.125Z,57.26
2023-09-16T07:26:40.567Z,56.67
2023-09-16T07:29:07.070Z,56.48
2023-09-16T07:31:33.565Z,56.28
2023-09-16T07:34:00.121Z,56.71
2023-09-16T07:36:26.647Z,56.86
2023-09-16T07:38:53.196Z,56.54
2023-09-16T07:41:19.723Z,55.93
2023-09-16T07:43:46.250Z,55.90
2023-09-16T07:46:12.817Z,55.60
2023-09-16T07:48:39.609Z,56.21
2023-09-16T07:51:06.091Z,57.64
2023-09-16T07:53:32.599Z,58.37
2023-09-16T07:55:59.056Z,57.55
2023-09-16T07:58:25.535Z,56.92
2023-09-16T08:00:52.133Z,58.04
2023-09-16T08:03:18.844Z,56.16
2023-09-16T08:05:45.477Z,56.00
2023-09-16T08:08:12.089Z,56.26
2023-09-16T08:10:38.613Z,56.08
2023-09-16T08:13:05.176Z,55.29
2023-09-16T08:15:31.688Z,56.02
2023-09-16T08:17:58.180Z,57.05
2023-09-16T08:20:24.626Z,58.26
2023-09-16T08:22:51.099Z,58.12
2023-09-16T08:25:17.577Z,57.86
2023-09-16T08:27:44.409Z,57.00
2023-09-16T08:30:10.908Z,56.69
2023-09-16T08:32:37.531Z,56.66
2023-09-16T08:35:04.015Z,56.69
2023-09-16T08:37:30.658Z,56.01
2023-09-16T08:39:57.135Z,54.56
2023-09-16T08:42:23.668Z,55.28
2023-09-16T08:44:50.396Z,55.29
2023-09-16T08:47:17.054Z,56.74
2023-09-16T08:49:43.716Z,56.80
2023-09-16T08:52:10.291Z,56.22
2023-09-16T08:54:36.727Z,55.61
2023-09-16T08:57:03.286Z,55.01
2023-09-16T08:59:29.705Z,57.11
2023-09-16T09:01:56.426Z,56.14
2023-09-16T09:04:23.034Z,56.71
2023-09-16T09:06:49.543Z,58.93
2023-09-16T09:09:16.148Z,58.38
2023-09-16T09:11:43.071Z,58.75
2023-09-16T09:14:10.347Z,57.84
2023-09-16T09:16:36.867Z,57.97
2023-09-16T09:19:03.470Z,57.41
2023-09-16T09:21:29.980Z,56.57
2023-09-16T09:23:56.442Z,55.65
2023-09-16T09:26:23.018Z,56.00
2023-09-16T09:28:49.772Z,55.05
2023-09-16T09:31:16.741Z,54.72
2023-09-16T09:33:43.515Z,55.36
2023-09-16T09:36:10.279Z,56.36
2023-09-16T09:38:36.764Z,54.88
2023-09-16T09:41:03.232Z,55.38
2023-09-16T09:43:29.691Z,55.61
2023-09-16T09:45:56.223Z,54.69
2023-09-16T09:48:22.792Z,55.35
2023-09-16T09:50:49.217Z,56.37
2023-09-16T09:53:15.662Z,53.71
2023-09-16T09:55:42.126Z,54.30
2023-09-16T09:58:08.613Z,54.72
2023-09-16T10:00:35.055Z,54.22
2023-09-16T10:03:01.654Z,53.31
2023-09-16T10:05:28.237Z,52.21
2023-09-16T10:07:54.819Z,53.19
2023-09-16T10:10:21.492Z,52.55
2023-09-16T10:12:48.159Z,52.85
2023-09-16T10:15:14.651Z,53.44
2023-09-16T10:17:41.301Z,53.33
2023-09-16T10:20:07.750Z,54.17
2023-09-16T10:22:34.216Z,54.29
2023-09-16T10:25:00.727Z,54.70
2023-09-16T10:27:27.278Z,54.55
2023-09-16T10:29:53.743Z,54.01
2023-09-16T10:32:20.781Z,52.28
2023-09-16T10:34:47.485Z,52.36
2023-09-16T10:37:14.051Z,51.64
2023-09-16T10:39:40.656Z,53.47
2023-09-16T10:42:07.116Z,52.93
2023-09-16T10:44:33.642Z,54.61
2023-09-16T10:47:00.280Z,52.68
2023-09-16T10:49:26.984Z,52.37
2023-09-16T10:51:53.546Z,52.40
2023-09-16T10:54:20.231Z,52.24
2023-09-16T10:56:46.872Z,51.04
2023-09-16T10:59:13.365Z,50.28
2023-09-16T11:01:39.893Z,49.46
2023-09-16T11:04:06.492Z,49.06
2023-09-16T11:06:32.930Z,49.56
2023-09-16T11:08:59.373Z,49.10
2023-09-16T11:11:25.888Z,49.88
2023-09-16T11:13:52.547Z,49.91
2023-09-16T11:16:19.203Z,49.04
2023-09-16T11:18:45.736Z,50.29
2023-09-16T11:21:14.217Z,49.58
2023-09-16T11:23:40.776Z,49.30
2023-09-16T11:26:07.257Z,48.86
2023-09-16T11:28:34.008Z,48.60
2023-09-16T11:31:00.545Z,49.12
2023-09-16T11:33:27.155Z,48.48
2023-09-16T11:35:53.716Z,49.08
2023-09-16T11:38:20.243Z,49.73
2023-09-16T11:40:46.798Z,49.36
2023-09-16T11:43:13.386Z,49.06
2023-09-16T11:45:39.969Z,49.62
2023-09-16T11:48:06.534Z,49.97
2023-09-16T11:50:33.033Z,49.78
2023-09-16T11:52:59.644Z,50.68
2023-09-16T11:55:26.141Z,51.72
2023-09-16T11:57:52.606Z,51.65
2023-09-16T12:00:19.105Z,52.97
2023-09-16T12:02:45.791Z,52.23
2023-09-16T12:05:12.325Z,52.38
2023-09-16T12:07:38.771Z,52.21
2023-09-16T12:10:05.514Z,52.74
2023-09-16T12:12:32.047Z,52.79
2023-09-16T12:14:58.567Z,49.90
2023-09-16T12:17:25.085Z,50.15
2023-09-16T12:19:51.658Z,47.80
2023-09-16T12:22:18.324Z,50.54
2023-09-16T12:24:44.954Z,53.70
2023-09-16T12:27:11.508Z,51.93
2023-09-16T12:29:38.084Z,50.55
2023-09-16T12:32:04.639Z,50.68
2023-09-16T12:34:31.167Z,50.48
2023-09-16T12:36:57.769Z,51.02
2023-09-16T12:39:24.323Z,49.93
2023-09-16T12:42:04.711Z,49.18
2023-09-16T12:44:37.703Z,49.42
2023-09-16T12:47:04.280Z,47.91
2023-09-16T12:49:30.902Z,46.80
2023-09-16T12:51:57.610Z,46.81
2023-09-16T12:54:24.164Z,46.04
2023-09-16T12:56:50.656Z,44.50
2023-09-16T12:59:17.169Z,45.23
2023-09-16T13:01:43.836Z,45.15
2023-09-16T13:04:10.374Z,45.72
2023-09-16T13:06:36.858Z,45.74
2023-09-16T13:09:03.380Z,45.13
2023-09-16T13:11:30.025Z,45.61
2023-09-16T13:13:56.593Z,46.09
2023-09-16T13:16:23.360Z,46.40
2023-09-16T13:18:50.011Z,45.71
2023-09-16T13:21:16.812Z,45.27
2023-09-16T13:23:43.336Z,45.07
2023-09-16T13:26:10.051Z,44.17
2023-09-16T13:28:36.556Z,44.47
2023-09-16T13:31:03.055Z,44.01
2023-09-16T13:33:29.589Z,44.13
2023-09-16T13:35:56.081Z,44.08
2023-09-16T13:38:22.644Z,43.53
2023-09-16T13:40:49.255Z,43.25
2023-09-16T13:43:15.819Z,43.71
2023-09-16T13:45:42.367Z,43.81
2023-09-16T13:48:08.829Z,43.59
2023-09-16T13:50:35.329Z,43.11
2023-09-16T13:53:01.824Z,43.42
2023-09-16T13:55:29.626Z,44.32
2023-09-16T13:57:58.127Z,43.87
2023-09-16T14:00:24.641Z,44.12
2023-09-16T14:02:51.276Z,44.11
2023-09-16T14:05:17.859Z,43.86
2023-09-16T14:07:44.385Z,44.00
2023-09-16T14:10:10.950Z,44.05
2023-09-16T14:12:38.590Z,43.45
2023-09-16T14:15:05.178Z,42.63
2023-09-16T14:17:31.724Z,42.34
2023-09-16T14:19:58.299Z,42.86
2023-09-16T14:22:24.822Z,41.90
2023-09-16T14:24:51.374Z,41.81
2023-09-16T14:27:17.825Z,41.79
2023-09-16T14:29:44.281Z,40.53
2023-09-16T14:32:10.761Z,40.07
2023-09-16T14:34:37.374Z,40.24
2023-09-16T14:37:03.983Z,39.24
2023-09-16T14:39:30.450Z,37.83
2023-09-16T14:41:56.898Z,35.93
2023-09-16T14:44:23.367Z,36.24
2023-09-16T14:46:49.921Z,33.80
2023-09-16T14:49:16.630Z,32.47
2023-09-16T14:51:43.128Z,33.52
2023-09-16T14:54:09.692Z,34.46
2023-09-16T14:56:36.120Z,34.49
2023-09-16T14:59:02.563Z,34.52
2023-09-16T15:01:29.236Z,32.81
2023-09-16T15:03:55.820Z,32.74
2023-09-16T15:06:22.352Z,32.70
2023-09-16T15:08:49.295Z,33.19
2023-09-16T15:11:16.133Z,32.02
2023-09-16T15:13:42.629Z,31.67
2023-09-16T15:16:09.179Z,31.13
2023-09-16T15:18:35.826Z,31.56
2023-09-16T15:21:02.436Z,31.54
2023-09-16T15:23:29.028Z,30.65
2023-09-16T15:25:55.597Z,32.35
2023-09-16T15:28:22.073Z,32.32
2023-09-16T15:30:48.761Z,32.41
2023-09-16T15:33:15.271Z,32.40
2023-09-16T15:35:41.744Z,32.04
2023-09-16T15:38:08.233Z,32.46
2023-09-16T15:40:34.746Z,33.12
2023-09-16T15:43:01.320Z,34.15
2023-09-16T15:45:27.826Z,34.94
2023-09-16T15:47:54.366Z,35.47
2023-09-16T15:50:20.993Z,36.13
2023-09-16T15:52:47.604Z,36.64
2023-09-16T15:55:14.083Z,37.36
2023-09-16T15:57:40.765Z,37.45
2023-09-16T16:00:07.261Z,38.26
2023-09-16T16:02:33.815Z,38.30
2023-09-16T16:05:00.372Z,38.79
2023-09-16T16:07:26.831Z,40.25
2023-09-16T16:09:53.372Z,40.78
2023-09-16T16:12:20.078Z,41.12
2023-09-16T16:14:46.545Z,41.42
2023-09-16T16:17:23.227Z,41.42
2023-09-16T16:19:50.703Z,42.31
2023-09-16T16:22:17.290Z,41.63
2023-09-16T16:24:43.769Z,43.04
2023-09-16T16:27:10.365Z,42.60
2023-09-16T16:29:36.837Z,42.62
2023-09-16T16:32:03.356Z,42.11
2023-09-16T16:34:29.944Z,42.33
2023-09-16T16:36:56.479Z,42.25
2023-09-16T16:39:22.969Z,42.21
2023-09-16T16:41:52.395Z,41.82
2023-09-16T16:44:18.949Z,42.73
2023-09-16T16:46:48.286Z,42.38
2023-09-16T16:49:16.206Z,42.14
2023-09-16T16:51:42.664Z,42.43
2023-09-16T16:54:11.196Z,42.01
2023-09-16T16:56:37.688Z,42.23
2023-09-16T16:59:04.272Z,42.13
2023-09-16T17:01:30.927Z,42.60
2023-09-16T17:03:57.485Z,43.02
2023-09-16T17:06:24.125Z,42.48
2023-09-16T17:08:50.724Z,43.03
2023-09-16T17:11:17.177Z,42.85
2023-09-16T17:13:43.620Z,42.42
2023-09-16T17:16:10.244Z,43.26
2023-09-16T17:18:36.884Z,43.49
2023-09-16T17:21:03.342Z,43.81
2023-09-16T17:23:29.838Z,43.86
2023-09-16T17:25:56.455Z,44.40
2023-09-16T17:28:23.010Z,44.67
2023-09-16T17:30:49.496Z,44.69
2023-09-16T17:33:15.966Z,45.88
2023-09-16T17:35:42.445Z,45.92
2023-09-16T17:38:09.047Z,45.84
2023-09-16T17:40:35.568Z,47.06
2023-09-16T17:43:02.062Z,47.02
2023-09-16T17:45:28.547Z,47.93
2023-09-16T17:47:55.063Z,47.83
2023-09-16T17:50:21.624Z,48.55
2023-09-16T17:52:48.245Z,48.71
2023-09-16T17:55:14.751Z,48.61
2023-09-16T17:57:41.246Z,49.50
2023-09-16T18:00:07.854Z,48.97
2023-09-16T18:02:34.326Z,49.47
2023-09-16T18:05:00.809Z,49.23
2023-09-16T18:07:27.357Z,49.87
2023-09-16T18:09:53.881Z,49.76
2023-09-16T18:12:20.413Z,50.33
2023-09-16T18:14:46.955Z,50.12
2023-09-16T18:17:13.453Z,50.09
2023-09-16T18:19:40.048Z,50.34
2023-09-16T18:22:06.746Z,50.28
2023-09-16T18:24:33.233Z,50.24
2023-09-16T18:26:59.691Z,51.45
2023-09-16T18:29:26.197Z,50.80
2023-09-16T18:31:52.750Z,52.01
2023-09-16T18:34:19.379Z,51.53
2023-09-16T18:36:45.956Z,51.90
2023-09-16T18:39:12.531Z,51.99
2023-09-16T18:41:39.023Z,52.05
2023-09-16T18:44:05.686Z,52.29
2023-09-16T18:46:32.270Z,52.61
2023-09-16T18:48:59.078Z,52.86
2023-09-16T18:51:25.793Z,52.50
2023-09-16T18:53:52.510Z,52.69
2023-09-16T18:56:19.282Z,52.78
2023-09-16T18:58:45.742Z,53.10
2023-09-16T19:01:12.349Z,53.63
2023-09-16T19:03:38.982Z,54.23
2023-09-16T19:06:05.456Z,53.96
2023-09-16T19:08:31.902Z,55.30
2023-09-16T19:10:58.343Z,54.82
2023-09-16T19:13:24.810Z,55.61
2023-09-16T19:15:51.415Z,55.47
2023-09-16T19:18:17.919Z,54.88
2023-09-16T19:20:44.397Z,55.58
2023-09-16T19:23:10.859Z,55.21
2023-09-16T19:25:37.450Z,55.56
2023-09-16T19:28:04.045Z,54.64
2023-09-16T19:30:30.537Z,55.45
2023-09-16T19:32:57.834Z,54.99
2023-09-16T19:35:24.641Z,54.58
2023-09-16T19:37:51.087Z,54.74
2023-09-16T19:40:17.836Z,55.75
2023-09-16T19:42:44.306Z,56.05
2023-09-16T19:45:10.786Z,55.50
2023-09-16T19:47:37.467Z,55.02
2023-09-16T19:50:04.190Z,54.99
2023-09-16T19:52:30.689Z,55.24
2023-09-16T19:54:57.300Z,55.64
2023-09-16T19:57:23.765Z,55.92
2023-09-16T19:59:50.223Z,56.07
2023-09-16T20:02:16.810Z,55.59
2023-09-16T20:04:43.354Z,55.78
2023-09-16T20:07:09.876Z,56.51
2023-09-16T20:09:36.534Z,56.75
2023-09-16T20:12:03.043Z,56.65
2023-09-16T20:14:29.572Z,57.44
2023-09-16T20:16:56.158Z,56.58
2023-09-16T20:19:22.849Z,56.68
2023-09-16T20:21:49.365Z,56.38
2023-09-16T20:24:15.856Z,56.25
2023-09-16T20:26:42.340Z,56.29
2023-09-16T20:29:08.818Z,56.50
2023-09-16T20:31:35.401Z,57.12
2023-09-16T20:34:11.638Z,56.34
2023-09-16T20:36:38.650Z,57.55
2023-09-16T20:39:05.084Z,58.84
2023-09-16T20:41:31.562Z,58.60
2023-09-16T20:43:58.184Z,59.26
2023-09-16T20:46:24.683Z,57.62
2023-09-16T20:48:51.168Z,57.00
2023-09-16T20:51:17.638Z,57.33
2023-09-16T20:53:44.078Z,59.31
2023-09-16T20:56:10.600Z,58.14
2023-09-16T20:58:37.186Z,58.10
2023-09-16T21:01:03.687Z,58.76
2023-09-16T21:03:30.265Z,58.98
2023-09-16T21:05:56.802Z,58.91
2023-09-16T21:08:23.309Z,59.17
2023-09-16T21:10:50.062Z,59.36
2023-09-16T21:13:16.563Z,58.46
2023-09-16T21:15:43.273Z,58.00
2023-09-16T21:18:09.843Z,58.12
2023-09-16T21:20:36.292Z,58.13
2023-09-16T21:23:03.193Z,58.46
2023-09-16T21:25:29.746Z,58.55
2023-09-16T21:27:56.370Z,58.69
2023-09-16T21:30:22.874Z,57.96
2023-09-16T21:32:49.590Z,57.83
2023-09-16T21:35:16.151Z,58.37
2023-09-16T21:37:42.617Z,58.48
2023-09-16T21:40:09.238Z,59.68
2023-09-16T21:42:35.910Z,59.56
2023-09-16T21:45:02.408Z,59.33
2023-09-16T21:47:28.885Z,60.64
2023-09-16T21:49:55.400Z,60.29
2023-09-16T21:52:21.886Z,59.97
2023-09-16T21:54:48.443Z,59.66
2023-09-16T21:57:14.926Z,60.01
2023-09-16T21:59:41.426Z,59.21
2023-09-16T22:02:07.967Z,60.01
2023-09-16T22:04:34.623Z,59.71
2023-09-16T22:07:01.438Z,59.26
2023-09-16T22:09:28.034Z,57.98
2023-09-16T22:11:54.512Z,58.32
2023-09-16T22:14:20.967Z,58.11
2023-09-16T22:16:47.514Z,57.77
2023-09-16T22:19:16.953Z,58.42
2023-09-16T22:21:43.463Z,59.43
2023-09-16T22:24:09.936Z,59.12
2023-09-16T22:26:36.434Z,60.32
2023-09-16T22:29:02.896Z,61.31
2023-09-16T22:31:29.404Z,60.41
2023-09-16T22:33:55.917Z,61.89
2023-09-16T22:36:22.365Z,61.27
2023-09-16T22:38:49.195Z,60.42
2023-09-16T22:41:16.036Z,60.58
2023-09-16T22:43:42.630Z,60.98
2023-09-16T22:46:09.115Z,61.23
2023-09-16T22:48:35.610Z,61.44
2023-09-16T22:51:02.043Z,60.64
2023-09-16T22:53:28.514Z,60.49
2023-09-16T22:55:54.981Z,60.18
2023-09-16T22:58:21.481Z,59.54
2023-09-16T23:00:48.164Z,59.42
2023-09-16T23:03:14.726Z,59.67
2023-09-16T23:05:41.293Z,59.79
2023-09-16T23:08:07.753Z,60.84
2023-09-16T23:10:34.377Z,61.46
2023-09-16T23:13:00.933Z,61.28
2023-09-16T23:15:27.475Z,61.56
2023-09-16T23:17:53.967Z,61.96
2023-09-16T23:20:20.451Z,62.72
2023-09-16T23:22:46.956Z,62.84
2023-09-16T23:25:13.463Z,62.78
2023-09-16T23:27:39.982Z,63.30
2023-09-16T23:30:06.557Z,63.66
2023-09-16T23:32:33.126Z,64.42
2023-09-16T23:34:59.664Z,63.88
2023-09-16T23:37:26.160Z,63.89
2023-09-16T23:39:52.597Z,63.99
2023-09-16T23:42:19.114Z,64.36
2023-09-16T23:44:45.681Z,63.51
2023-09-16T23:47:12.314Z,62.32
2023-09-16T23:49:38.965Z,63.38
2023-09-16T23:52:05.560Z,64.41
2023-09-16T23:54:31.989Z,63.80
2023-09-16T23:56:58.438Z,65.08
2023-09-16T23:59:24.912Z,64.78
